createdAt,value
2022-10-31T00:00:10.425Z,16.79
2022-10-31T00:03:02.573Z,16.74
2022-10-31T00:05:35.944Z,16.67
2022-10-31T00:08:10.100Z,16.44
2022-10-31T00:10:43.708Z,16.32
2022-10-31T00:13:18.430Z,16.29
2022-10-31T00:15:51.349Z,16.26
2022-10-31T00:18:25.214Z,16.44
2022-10-31T00:21:03.685Z,16.43
2022-10-31T00:23:35.615Z,16.40
2022-10-31T00:26:08.827Z,16.35
2022-10-31T00:28:43.077Z,16.33
2022-10-31T00:31:16.160Z,16.27
2022-10-31T00:33:49.119Z,16.21
2022-10-31T00:36:22.470Z,16.20
2022-10-31T00:38:55.224Z,16.15
2022-10-31T00:41:28.086Z,15.92
2022-10-31T00:44:00.594Z,15.90
2022-10-31T00:46:32.627Z,15.93
2022-10-31T00:49:05.860Z,15.96
2022-10-31T00:51:38.310Z,15.74
2022-10-31T00:54:12.204Z,15.65
2022-10-31T00:56:43.957Z,15.63
2022-10-31T00:59:17.236Z,15.61
2022-10-31T01:01:49.803Z,15.59
2022-10-31T01:04:22.764Z,15.55
2022-10-31T01:06:55.232Z,15.70
2022-10-31T01:09:27.989Z,15.71
2022-10-31T01:12:00.508Z,15.71
2022-10-31T01:14:36.752Z,15.70
2022-10-31T01:17:08.689Z,15.67
2022-10-31T01:19:42.223Z,15.69
2022-10-31T01:22:15.065Z,15.70
2022-10-31T01:24:47.084Z,15.71
2022-10-31T01:27:19.623Z,15.74
2022-10-31T01:29:53.302Z,15.75
2022-10-31T01:32:29.976Z,15.75
2022-10-31T01:35:02.044Z,15.79
2022-10-31T01:37:38.529Z,15.77
2022-10-31T01:40:13.174Z,15.77
2022-10-31T01:42:47.024Z,15.75
2022-10-31T01:45:20.794Z,15.75
2022-10-31T01:47:53.633Z,15.76
2022-10-31T01:50:32.735Z,15.73
2022-10-31T01:53:07.439Z,15.70
2022-10-31T01:55:42.508Z,15.70
2022-10-31T02:01:06.689Z,15.61
2022-10-31T02:03:41.285Z,15.58
2022-10-31T02:06:16.077Z,15.56
2022-10-31T02:08:48.347Z,15.54
2022-10-31T02:11:20.928Z,15.52
2022-10-31T02:13:56.391Z,15.52
2022-10-31T02:16:31.188Z,15.52
2022-10-31T02:19:05.080Z,15.50
2022-10-31T02:21:47.140Z,15.47
2022-10-31T02:24:45.512Z,15.42
2022-10-31T02:27:29.824Z,15.37
2022-10-31T02:30:14.517Z,15.38
2022-10-31T02:33:04.094Z,15.37
2022-10-31T02:35:43.896Z,15.38
2022-10-31T02:38:27.584Z,15.37
2022-10-31T02:41:06.566Z,15.35
2022-10-31T02:43:50.485Z,15.33
2022-10-31T02:46:30.174Z,15.30
2022-10-31T02:49:08.134Z,15.11
2022-10-31T02:51:42.757Z,15.00
2022-10-31T02:54:26.285Z,14.95
2022-10-31T02:57:03.782Z,14.92
2022-10-31T02:59:39.885Z,15.01
2022-10-31T03:02:32.144Z,15.10
2022-10-31T03:05:17.125Z,14.89
2022-10-31T03:07:55.907Z,14.82
2022-10-31T03:10:37.179Z,14.79
2022-10-31T03:13:13.476Z,14.77
2022-10-31T03:15:48.067Z,14.73
2022-10-31T03:18:25.785Z,14.66
2022-10-31T03:21:00.945Z,14.62
2022-10-31T03:23:34.426Z,14.59
2022-10-31T03:26:09.888Z,14.57
2022-10-31T03:28:48.465Z,14.54
2022-10-31T03:31:25.508Z,14.53
2022-10-31T03:34:02.711Z,14.57
2022-10-31T03:36:41.022Z,14.56
2022-10-31T03:39:19.246Z,14.52
2022-10-31T03:41:55.204Z,14.52
2022-10-31T03:44:27.782Z,14.50
2022-10-31T03:47:00.541Z,14.68
2022-10-31T03:49:34.604Z,14.70
2022-10-31T03:52:16.653Z,14.69
2022-10-31T03:54:52.459Z,14.71
2022-10-31T03:57:30.814Z,14.70
2022-10-31T04:00:08.763Z,14.67
2022-10-31T04:02:44.264Z,14.66
2022-10-31T04:05:17.406Z,14.63
2022-10-31T04:07:55.070Z,14.60
2022-10-31T04:10:32.879Z,14.58
2022-10-31T04:13:10.179Z,14.40
2022-10-31T04:15:45.849Z,14.34
2022-10-31T04:18:20.185Z,14.27
2022-10-31T04:21:01.093Z,14.28
2022-10-31T04:23:34.540Z,14.21
2022-10-31T04:26:07.181Z,14.12
2022-10-31T04:28:41.255Z,14.08
2022-10-31T04:31:15.521Z,14.27
2022-10-31T04:33:49.911Z,14.31
2022-10-31T04:36:22.850Z,14.31
2022-10-31T04:38:55.668Z,14.30
2022-10-31T04:41:30.075Z,14.16
2022-10-31T04:44:05.754Z,14.11
2022-10-31T04:46:39.160Z,14.07
2022-10-31T04:49:11.872Z,14.18
2022-10-31T04:51:45.744Z,14.26
2022-10-31T04:54:18.388Z,14.26
2022-10-31T04:56:52.470Z,14.26
2022-10-31T04:59:24.877Z,14.22
2022-10-31T05:01:58.315Z,14.19
2022-10-31T05:04:31.675Z,14.16
2022-10-31T05:07:04.910Z,14.13
2022-10-31T05:09:37.655Z,14.10
2022-10-31T05:12:11.758Z,14.08
2022-10-31T05:14:47.677Z,14.10
2022-10-31T05:17:22.258Z,14.02
2022-10-31T05:19:54.200Z,13.88
2022-10-31T05:22:29.894Z,13.87
2022-10-31T05:25:03.128Z,13.85
2022-10-31T05:27:36.370Z,13.82
2022-10-31T05:30:10.576Z,13.82
2022-10-31T05:32:45.488Z,13.82
2022-10-31T05:35:22.650Z,13.82
2022-10-31T05:37:54.521Z,13.76
2022-10-31T05:40:27.051Z,13.77
2022-10-31T05:43:01.099Z,13.76
2022-10-31T05:45:35.747Z,13.82
2022-10-31T05:48:08.598Z,13.83
2022-10-31T05:50:45.754Z,13.84
2022-10-31T05:53:18.837Z,13.91
2022-10-31T05:55:51.001Z,13.87
2022-10-31T05:58:24.571Z,13.91
2022-10-31T06:01:01.290Z,13.91
2022-10-31T06:03:33.313Z,13.93
2022-10-31T06:06:08.512Z,13.97
2022-10-31T06:08:42.598Z,14.03
2022-10-31T06:11:17.807Z,14.05
2022-10-31T06:13:52.343Z,14.14
2022-10-31T06:16:24.857Z,14.19
2022-10-31T06:18:57.802Z,14.13
2022-10-31T06:21:34.819Z,14.14
2022-10-31T06:24:08.650Z,14.21
2022-10-31T06:26:40.545Z,14.29
2022-10-31T06:29:13.103Z,14.34
2022-10-31T06:31:45.899Z,14.48
2022-10-31T06:34:18.829Z,14.63
2022-10-31T06:36:53.500Z,14.73
2022-10-31T06:39:30.582Z,14.77
2022-10-31T06:42:03.366Z,14.87
2022-10-31T06:44:35.918Z,14.94
2022-10-31T06:47:08.910Z,14.96
2022-10-31T06:49:43.127Z,14.88
2022-10-31T06:52:16.247Z,14.95
2022-10-31T06:54:49.003Z,14.97
2022-10-31T06:57:23.700Z,15.01
2022-10-31T06:59:57.587Z,15.17
2022-10-31T07:02:32.805Z,15.27
2022-10-31T07:05:05.693Z,15.30
2022-10-31T07:07:39.086Z,15.37
2022-10-31T07:12:49.283Z,15.80
2022-10-31T07:15:35.610Z,15.92
2022-10-31T07:18:40.317Z,16.00
2022-10-31T07:21:18.347Z,16.13
2022-10-31T07:24:21.691Z,16.24
2022-10-31T07:27:01.816Z,16.30
2022-10-31T07:29:38.673Z,16.36
2022-10-31T07:32:20.564Z,16.22
2022-10-31T07:34:52.372Z,16.29
2022-10-31T07:37:28.289Z,16.50
2022-10-31T07:40:32.004Z,16.71
2022-10-31T07:43:21.229Z,16.86
2022-10-31T07:45:59.251Z,16.92
2022-10-31T07:52:53.784Z,17.11
2022-10-31T07:55:27.263Z,17.23
2022-10-31T07:58:25.241Z,17.32
2022-10-31T08:01:46.023Z,17.26
2022-10-31T08:04:45.027Z,17.37
2022-10-31T08:07:19.489Z,17.57
2022-10-31T08:10:26.428Z,17.70
2022-10-31T08:14:14.006Z,17.98
2022-10-31T08:17:15.145Z,18.01
2022-10-31T08:19:54.291Z,18.17
2022-10-31T08:26:15.886Z,18.60
2022-10-31T08:28:48.549Z,18.83
2022-10-31T08:31:21.472Z,18.96
2022-10-31T08:33:56.402Z,19.09
2022-10-31T08:36:29.817Z,19.24
2022-10-31T08:39:02.597Z,19.37
2022-10-31T08:41:37.352Z,19.51
2022-10-31T08:44:10.041Z,19.64
2022-10-31T08:46:43.908Z,19.70
2022-10-31T08:49:18.309Z,19.78
2022-10-31T08:51:54.191Z,19.87
2022-10-31T08:54:28.988Z,20.02
2022-10-31T08:57:03.295Z,20.01
2022-10-31T08:59:35.388Z,20.20
2022-10-31T09:02:09.727Z,20.31
2022-10-31T09:04:42.643Z,20.27
2022-10-31T09:07:21.689Z,20.33
2022-10-31T09:09:54.292Z,20.55
2022-10-31T09:12:26.892Z,20.59
2022-10-31T09:15:03.389Z,20.71
2022-10-31T09:17:36.068Z,21.00
2022-10-31T09:20:10.155Z,21.17
2022-10-31T09:22:42.403Z,21.25
2022-10-31T09:25:16.180Z,21.37
2022-10-31T09:27:48.694Z,21.53
2022-10-31T09:30:22.999Z,21.70
2022-10-31T09:33:07.673Z,21.85
2022-10-31T09:39:13.362Z,22.12
2022-10-31T09:42:36.731Z,22.26
2022-10-31T09:49:33.263Z,22.52
2022-10-31T09:52:20.773Z,22.59
2022-10-31T09:55:01.748Z,22.72
2022-10-31T09:58:08.546Z,22.84
2022-10-31T10:01:08.697Z,22.92
2022-10-31T10:04:10.366Z,23.06
2022-10-31T10:06:51.298Z,23.24
2022-10-31T10:09:29.605Z,23.38
2022-10-31T10:16:49.889Z,23.64
2022-10-31T10:19:42.708Z,23.76
2022-10-31T10:25:49.893Z,23.99
2022-10-31T10:28:58.594Z,24.06
2022-10-31T10:32:13.838Z,24.11
2022-10-31T10:34:54.195Z,24.33
2022-10-31T10:37:46.308Z,24.44
2022-10-31T10:40:29.077Z,24.49
2022-10-31T10:50:36.898Z,24.90
2022-10-31T10:53:55.782Z,24.82
2022-10-31T10:57:09.132Z,24.86
2022-10-31T10:59:44.007Z,25.02
2022-10-31T11:06:36.288Z,25.00
2022-10-31T11:09:49.750Z,24.93
2022-10-31T11:19:58.040Z,25.31
2022-10-31T11:22:35.429Z,25.43
2022-10-31T11:31:28.786Z,25.59
2022-10-31T11:34:52.517Z,25.66
2022-10-31T11:37:30.882Z,25.78
2022-10-31T11:47:01.420Z,26.38
2022-10-31T11:49:41.790Z,26.69
2022-10-31T11:52:31.271Z,26.84
2022-10-31T11:55:58.762Z,26.94
2022-10-31T12:02:45.266Z,27.20
2022-10-31T12:05:58.110Z,27.36
2022-10-31T12:08:40.012Z,27.66
2022-10-31T12:11:35.208Z,27.79
2022-10-31T12:14:29.004Z,28.01
2022-10-31T12:20:20.751Z,28.36
2022-10-31T12:23:30.653Z,28.68
2022-10-31T12:27:01.831Z,28.96
2022-10-31T12:30:11.465Z,29.13
2022-10-31T12:33:56.361Z,29.20
2022-10-31T12:37:06.008Z,29.26
2022-10-31T12:40:17.389Z,29.47
2022-10-31T12:43:30.317Z,29.76
2022-10-31T12:49:54.095Z,29.64
2022-10-31T12:53:25.812Z,29.53
2022-10-31T12:59:48.718Z,30.10
2022-10-31T13:02:51.156Z,30.35
2022-10-31T13:05:59.554Z,30.55
2022-10-31T13:08:45.277Z,30.77
2022-10-31T13:11:31.268Z,30.93
2022-10-31T13:14:38.976Z,30.92
2022-10-31T13:17:43.049Z,30.77
2022-10-31T13:27:45.885Z,29.67
2022-10-31T13:30:26.634Z,29.30
2022-10-31T13:33:42.863Z,28.94
2022-10-31T13:36:35.449Z,28.60
2022-10-31T13:39:44.242Z,28.38
2022-10-31T13:45:59.060Z,27.97
2022-10-31T13:49:13.252Z,27.72
2022-10-31T13:52:11.586Z,27.46
2022-10-31T13:56:04.115Z,27.19
2022-10-31T13:59:26.989Z,26.94
2022-10-31T14:02:06.160Z,26.76
2022-10-31T14:05:06.885Z,26.70
2022-10-31T14:10:56.000Z,26.56
2022-10-31T14:14:15.848Z,26.44
2022-10-31T14:17:20.500Z,26.38
2022-10-31T14:20:10.052Z,26.29
2022-10-31T14:22:48.413Z,26.22
2022-10-31T14:26:15.685Z,26.10
2022-10-31T14:29:37.716Z,25.95
2022-10-31T14:32:26.246Z,25.90
2022-10-31T14:35:27.619Z,25.82
2022-10-31T14:38:31.514Z,25.72
2022-10-31T14:44:58.022Z,25.51
2022-10-31T14:50:59.716Z,25.35
2022-10-31T14:54:16.521Z,25.25
2022-10-31T15:00:29.375Z,25.06
2022-10-31T15:03:19.229Z,25.00
2022-10-31T15:13:26.376Z,24.64
2022-10-31T15:30:01.808Z,23.89
2022-10-31T15:33:02.125Z,23.76
2022-10-31T15:36:00.155Z,23.62
2022-10-31T15:38:38.680Z,23.49
2022-10-31T15:48:31.621Z,22.99
2022-10-31T15:51:54.732Z,22.87
2022-10-31T15:54:31.194Z,22.70
2022-10-31T15:57:26.844Z,22.54
2022-10-31T16:01:14.061Z,22.40
2022-10-31T16:05:02.944Z,22.21
2022-10-31T16:08:28.908Z,22.02
2022-10-31T16:14:48.566Z,21.73
2022-10-31T16:17:59.274Z,21.64
2022-10-31T16:21:00.267Z,21.51
2022-10-31T16:23:38.317Z,21.39
2022-10-31T16:26:21.849Z,21.29
2022-10-31T16:37:09.923Z,20.88
2022-10-31T16:40:06.800Z,20.76
2022-10-31T16:47:22.204Z,20.50
2022-10-31T16:53:45.640Z,20.25
2022-10-31T16:56:49.797Z,20.11
2022-10-31T16:59:34.179Z,20.02
2022-10-31T17:02:23.942Z,19.94
2022-10-31T17:05:05.105Z,19.86
2022-10-31T17:08:10.624Z,19.77
2022-10-31T17:15:21.249Z,19.62
2022-10-31T17:17:59.726Z,19.52
2022-10-31T17:24:47.718Z,19.35
2022-10-31T17:27:23.620Z,19.28
2022-10-31T17:29:57.020Z,19.23
2022-10-31T17:32:31.078Z,19.16
2022-10-31T17:38:15.617Z,19.03
2022-10-31T17:40:53.401Z,19.00
2022-10-31T17:43:50.026Z,18.92
2022-10-31T17:46:51.532Z,18.83
2022-10-31T17:52:55.393Z,18.73
2022-10-31T17:55:57.855Z,18.67
2022-10-31T18:04:38.208Z,18.51
2022-10-31T18:07:11.274Z,18.42
2022-10-31T18:10:12.183Z,18.37
2022-10-31T18:17:03.339Z,18.22
2022-10-31T18:20:02.893Z,18.14
2022-10-31T18:23:34.066Z,18.06
2022-10-31T18:26:11.643Z,17.98
2022-10-31T18:29:12.377Z,17.92
2022-10-31T18:36:06.476Z,17.79
2022-10-31T18:39:30.781Z,17.74
2022-10-31T18:42:12.178Z,17.71
2022-10-31T18:44:50.267Z,17.65
2022-10-31T18:48:19.851Z,17.58
2022-10-31T18:51:46.842Z,17.52
2022-10-31T18:55:10.821Z,17.47
2022-10-31T18:58:32.866Z,17.41
2022-10-31T19:01:37.863Z,17.38
2022-10-31T19:04:18.044Z,17.29
2022-10-31T19:10:01.056Z,17.22
2022-10-31T19:13:21.261Z,17.17
2022-10-31T19:15:55.920Z,17.11
2022-10-31T19:18:57.346Z,17.04
2022-10-31T19:24:38.165Z,16.97
2022-10-31T19:27:15.232Z,16.96
2022-10-31T19:30:41.456Z,16.94
2022-10-31T19:33:39.838Z,16.86
2022-10-31T19:40:08.379Z,16.72
2022-10-31T19:42:44.437Z,16.69
2022-10-31T19:45:21.885Z,16.68
2022-10-31T19:52:11.700Z,16.63
2022-10-31T19:55:18.695Z,16.60
2022-10-31T20:04:43.871Z,16.51
2022-10-31T20:07:21.897Z,16.47
2022-10-31T20:10:28.242Z,16.43
2022-10-31T20:27:34.777Z,16.25
2022-10-31T20:30:47.184Z,16.21
2022-10-31T20:37:12.895Z,16.16
2022-10-31T20:39:52.616Z,16.11
2022-10-31T20:43:03.292Z,16.08
2022-10-31T20:46:03.543Z,16.03
2022-10-31T20:49:03.873Z,15.99
2022-10-31T20:55:34.297Z,15.94
2022-10-31T20:58:16.395Z,15.89
2022-10-31T21:00:58.370Z,15.87
2022-10-31T21:10:03.475Z,15.80
2022-10-31T21:13:01.881Z,15.79
2022-10-31T21:19:05.746Z,15.75
2022-10-31T21:22:09.932Z,15.72
2022-10-31T21:24:46.599Z,15.67
2022-10-31T21:27:22.438Z,15.66
2022-10-31T21:30:22.035Z,15.64
2022-10-31T21:33:21.764Z,15.60
2022-10-31T21:39:50.488Z,15.50
2022-10-31T21:42:30.355Z,15.43
2022-10-31T21:54:39.204Z,15.31
2022-10-31T21:58:00.739Z,15.29
2022-10-31T22:01:06.121Z,15.27
2022-10-31T22:08:10.942Z,15.21
2022-10-31T22:11:12.143Z,15.16
2022-10-31T22:14:16.877Z,15.14
2022-10-31T22:17:21.004Z,15.10
2022-10-31T22:19:57.985Z,15.03
2022-10-31T22:22:55.152Z,15.00
2022-10-31T22:25:57.221Z,14.96
2022-10-31T22:28:36.664Z,14.92
2022-10-31T22:33:58.627Z,14.87
2022-10-31T22:36:36.048Z,14.84
2022-10-31T22:39:37.788Z,14.83
2022-10-31T22:42:15.636Z,14.81
2022-10-31T22:44:52.897Z,14.80
2022-10-31T22:47:28.782Z,14.79
2022-10-31T22:50:05.809Z,14.78
2022-10-31T22:53:04.135Z,14.79
2022-10-31T22:55:47.018Z,14.77
2022-10-31T22:59:10.768Z,14.73
2022-10-31T23:02:12.477Z,14.72
2022-10-31T23:05:15.576Z,14.71
2022-10-31T23:08:35.888Z,14.69
2022-10-31T23:11:38.870Z,14.72
2022-10-31T23:18:01.047Z,14.67
2022-10-31T23:20:59.892Z,14.66
2022-10-31T23:27:14.115Z,14.62
2022-10-31T23:29:51.537Z,14.61
2022-10-31T23:32:28.427Z,14.62
2022-10-31T23:42:16.158Z,14.54
2022-10-31T23:44:49.447Z,14.52
2022-10-31T23:47:50.136Z,14.54
2022-10-31T23:50:47.437Z,14.54
2022-10-31T23:53:24.913Z,14.52
2022-10-31T23:56:48.341Z,14.51
2022-10-31T23:59:46.652Z,14.47
